sensor_id;sensor_type;location;lat;lon;timestamp;pressure;altitude;pressure_sealevel;temperature;humidity
35551;BME280;21655;46.056;13.616;2023-04-01T00:01:11;99233.69;;;8.73;100.00
35551;BME280;21655;46.056;13.616;2023-04-01T00:03:39;99231.50;;;8.69;100.00
35551;BME280;21655;46.056;13.616;2023-04-01T00:06:05;99233.22;;;8.70;100.00
35551;BME280;21655;46.056;13.616;2023-04-01T00:08:31;99248.47;;;8.66;100.00
35551;BME280;21655;46.056;13.616;2023-04-01T00:10:57;99261.44;;;8.65;100.00
35551;BME280;21655;46.056;13.616;2023-04-01T00:13:23;99263.75;;;8.62;100.00
35551;BME280;21655;46.056;13.616;2023-04-01T00:15:50;99261.16;;;8.60;100.00
35551;BME280;21655;46.056;13.616;2023-04-01T00:18:16;99260.09;;;8.61;100.00
35551;BME280;21655;46.056;13.616;2023-04-01T00:20:46;99263.66;;;8.55;100.00
35551;BME280;21655;46.056;13.616;2023-04-01T00:23:12;99272.78;;;8.56;100.00
35551;BME280;21655;46.056;13.616;2023-04-01T00:25:37;99275.38;;;8.57;100.00
35551;BME280;21655;46.056;13.616;2023-04-01T00:28:03;99268.31;;;8.55;100.00
35551;BME280;21655;46.056;13.616;2023-04-01T00:30:28;99258.13;;;8.55;100.00
35551;BME280;21655;46.056;13.616;2023-04-01T00:32:54;99262.34;;;8.51;100.00
35551;BME280;21655;46.056;13.616;2023-04-01T00:35:20;99253.56;;;8.48;100.00
35551;BME280;21655;46.056;13.616;2023-04-01T00:37:45;99245.69;;;8.45;100.00
35551;BME280;21655;46.056;13.616;2023-04-01T00:40:31;99245.28;;;8.48;100.00
35551;BME280;21655;46.056;13.616;2023-04-01T00:42:57;99253.31;;;8.43;100.00
35551;BME280;21655;46.056;13.616;2023-04-01T00:47:55;99249.91;;;8.26;100.00
35551;BME280;21655;46.056;13.616;2023-04-01T00:50:23;99250.69;;;8.20;100.00
35551;BME280;21655;46.056;13.616;2023-04-01T00:52:50;99248.59;;;8.22;100.00
35551;BME280;21655;46.056;13.616;2023-04-01T00:55:16;99244.59;;;8.25;100.00
35551;BME280;21655;46.056;13.616;2023-04-01T00:57:46;99248.47;;;8.16;100.00
35551;BME280;21655;46.056;13.616;2023-04-01T01:00:14;99247.78;;;8.14;100.00
35551;BME280;21655;46.056;13.616;2023-04-01T01:02:41;99247.03;;;8.05;100.00
35551;BME280;21655;46.056;13.616;2023-04-01T01:05:13;99255.91;;;8.01;100.00
35551;BME280;21655;46.056;13.616;2023-04-01T01:07:50;99261.81;;;7.98;100.00
35551;BME280;21655;46.056;13.616;2023-04-01T01:10:30;99261.31;;;7.94;100.00
35551;BME280;21655;46.056;13.616;2023-04-01T01:13:29;99259.72;;;7.85;100.00
35551;BME280;21655;46.056;13.616;2023-04-01T01:16:25;99252.19;;;7.79;100.00
35551;BME280;21655;46.056;13.616;2023-04-01T01:27:54;99253.91;;;7.66;100.00
35551;BME280;21655;46.056;13.616;2023-04-01T01:36:09;99231.06;;;7.43;100.00
35551;BME280;21655;46.056;13.616;2023-04-01T01:38:37;99225.06;;;7.39;100.00
35551;BME280;21655;46.056;13.616;2023-04-01T01:41:05;99215.56;;;7.42;100.00
35551;BME280;21655;46.056;13.616;2023-04-01T01:43:36;99218.31;;;7.42;100.00
35551;BME280;21655;46.056;13.616;2023-04-01T01:46:09;99204.03;;;7.38;100.00
35551;BME280;21655;46.056;13.616;2023-04-01T01:48:36;99201.66;;;7.36;100.00
35551;BME280;21655;46.056;13.616;2023-04-01T01:51:05;99199.25;;;7.32;100.00
35551;BME280;21655;46.056;13.616;2023-04-01T01:53:30;99198.69;;;7.23;100.00
35551;BME280;21655;46.056;13.616;2023-04-01T01:55:56;99197.94;;;7.29;100.00
35551;BME280;21655;46.056;13.616;2023-04-01T01:58:30;99196.06;;;7.29;100.00
35551;BME280;21655;46.056;13.616;2023-04-01T02:00:59;99193.38;;;7.21;100.00
35551;BME280;21655;46.056;13.616;2023-04-01T02:03:29;99188.59;;;7.15;100.00
35551;BME280;21655;46.056;13.616;2023-04-01T02:05:59;99186.22;;;7.12;100.00
35551;BME280;21655;46.056;13.616;2023-04-01T02:08:32;99186.13;;;7.06;100.00
35551;BME280;21655;46.056;13.616;2023-04-01T02:11:05;99173.38;;;7.05;100.00
35551;BME280;21655;46.056;13.616;2023-04-01T02:16:21;99174.13;;;6.99;100.00
35551;BME280;21655;46.056;13.616;2023-04-01T02:18:51;99171.84;;;7.02;100.00
35551;BME280;21655;46.056;13.616;2023-04-01T02:21:21;99169.66;;;6.98;100.00
35551;BME280;21655;46.056;13.616;2023-04-01T02:23:48;99178.13;;;6.96;100.00
35551;BME280;21655;46.056;13.616;2023-04-01T02:26:15;99175.66;;;7.01;100.00
35551;BME280;21655;46.056;13.616;2023-04-01T02:28:42;99172.63;;;7.11;100.00
35551;BME280;21655;46.056;13.616;2023-04-01T02:31:10;99173.59;;;7.18;100.00
35551;BME280;21655;46.056;13.616;2023-04-01T02:33:38;99174.81;;;7.15;100.00
35551;BME280;21655;46.056;13.616;2023-04-01T02:36:04;99169.50;;;7.14;100.00
35551;BME280;21655;46.056;13.616;2023-04-01T02:38:30;99170.75;;;7.11;100.00
35551;BME280;21655;46.056;13.616;2023-04-01T02:40:58;99179.56;;;7.07;100.00
35551;BME280;21655;46.056;13.616;2023-04-01T02:43:25;99171.41;;;7.13;100.00
35551;BME280;21655;46.056;13.616;2023-04-01T02:45:51;99182.22;;;7.15;100.00
35551;BME280;21655;46.056;13.616;2023-04-01T02:48:16;99180.16;;;7.17;100.00
35551;BME280;21655;46.056;13.616;2023-04-01T02:50:42;99184.88;;;7.08;100.00
35551;BME280;21655;46.056;13.616;2023-04-01T02:53:07;99187.28;;;7.11;100.00
35551;BME280;21655;46.056;13.616;2023-04-01T02:55:34;99195.16;;;7.14;100.00
35551;BME280;21655;46.056;13.616;2023-04-01T02:57:59;99196.78;;;7.09;100.00
35551;BME280;21655;46.056;13.616;2023-04-01T03:00:25;99196.50;;;7.18;100.00
35551;BME280;21655;46.056;13.616;2023-04-01T03:02:51;99195.53;;;7.11;100.00
35551;BME280;21655;46.056;13.616;2023-04-01T03:05:17;99195.91;;;7.08;100.00
35551;BME280;21655;46.056;13.616;2023-04-01T03:07:43;99190.59;;;7.07;100.00
35551;BME280;21655;46.056;13.616;2023-04-01T03:10:08;99199.97;;;6.98;100.00
35551;BME280;21655;46.056;13.616;2023-04-01T03:12:34;99186.94;;;6.92;100.00
35551;BME280;21655;46.056;13.616;2023-04-01T03:15:00;99185.22;;;6.91;100.00
35551;BME280;21655;46.056;13.616;2023-04-01T03:17:25;99196.06;;;6.92;100.00
35551;BME280;21655;46.056;13.616;2023-04-01T03:19:50;99192.63;;;6.90;100.00
35551;BME280;21655;46.056;13.616;2023-04-01T03:22:16;99202.44;;;6.93;100.00
35551;BME280;21655;46.056;13.616;2023-04-01T03:24:41;99192.72;;;6.82;100.00
35551;BME280;21655;46.056;13.616;2023-04-01T03:27:07;99195.47;;;6.82;100.00
35551;BME280;21655;46.056;13.616;2023-04-01T03:29:32;99193.75;;;6.81;100.00
35551;BME280;21655;46.056;13.616;2023-04-01T03:31:58;99200.84;;;6.76;100.00
35551;BME280;21655;46.056;13.616;2023-04-01T03:34:24;99214.31;;;6.71;100.00
35551;BME280;21655;46.056;13.616;2023-04-01T03:36:51;99216.22;;;6.70;100.00
35551;BME280;21655;46.056;13.616;2023-04-01T03:39:17;99221.06;;;6.68;100.00
35551;BME280;21655;46.056;13.616;2023-04-01T03:41:44;99216.97;;;6.64;100.00
35551;BME280;21655;46.056;13.616;2023-04-01T03:44:10;99220.44;;;6.58;100.00
35551;BME280;21655;46.056;13.616;2023-04-01T03:46:36;99230.44;;;6.59;100.00
35551;BME280;21655;46.056;13.616;2023-04-01T03:49:01;99221.00;;;6.54;100.00
35551;BME280;21655;46.056;13.616;2023-04-01T03:51:27;99227.03;;;6.49;100.00
35551;BME280;21655;46.056;13.616;2023-04-01T03:53:53;99230.47;;;6.51;100.00
35551;BME280;21655;46.056;13.616;2023-04-01T03:56:18;99226.16;;;6.49;100.00
35551;BME280;21655;46.056;13.616;2023-04-01T03:58:44;99220.53;;;6.42;100.00
35551;BME280;21655;46.056;13.616;2023-04-01T04:01:20;99217.63;;;6.44;100.00
35551;BME280;21655;46.056;13.616;2023-04-01T04:03:46;99219.88;;;6.40;100.00
35551;BME280;21655;46.056;13.616;2023-04-01T04:06:14;99226.38;;;6.47;100.00
35551;BME280;21655;46.056;13.616;2023-04-01T04:08:40;99235.31;;;6.49;100.00
35551;BME280;21655;46.056;13.616;2023-04-01T04:11:06;99232.84;;;6.54;100.00
35551;BME280;21655;46.056;13.616;2023-04-01T04:13:32;99239.91;;;6.57;100.00
35551;BME280;21655;46.056;13.616;2023-04-01T04:15:58;99241.13;;;6.54;100.00
35551;BME280;21655;46.056;13.616;2023-04-01T04:18:23;99232.84;;;6.54;100.00
35551;BME280;21655;46.056;13.616;2023-04-01T04:20:49;99239.78;;;6.50;100.00
35551;BME280;21655;46.056;13.616;2023-04-01T04:23:17;99233.97;;;6.45;100.00
35551;BME280;21655;46.056;13.616;2023-04-01T04:26:03;99246.19;;;6.43;100.00
35551;BME280;21655;46.056;13.616;2023-04-01T04:28:30;99243.06;;;6.46;100.00
35551;BME280;21655;46.056;13.616;2023-04-01T04:30:55;99247.72;;;6.45;100.00
35551;BME280;21655;46.056;13.616;2023-04-01T04:33:22;99243.81;;;6.40;100.00
35551;BME280;21655;46.056;13.616;2023-04-01T04:35:48;99250.22;;;6.32;100.00
35551;BME280;21655;46.056;13.616;2023-04-01T04:38:14;99256.16;;;6.44;100.00
35551;BME280;21655;46.056;13.616;2023-04-01T04:40:41;99253.56;;;6.42;100.00
35551;BME280;21655;46.056;13.616;2023-04-01T04:43:07;99249.00;;;6.35;100.00
35551;BME280;21655;46.056;13.616;2023-04-01T04:45:35;99251.06;;;6.33;100.00
35551;BME280;21655;46.056;13.616;2023-04-01T04:48:00;99253.28;;;6.37;100.00
35551;BME280;21655;46.056;13.616;2023-04-01T04:50:26;99265.28;;;6.44;100.00
35551;BME280;21655;46.056;13.616;2023-04-01T04:52:51;99255.63;;;6.48;100.00
35551;BME280;21655;46.056;13.616;2023-04-01T04:55:17;99253.84;;;6.55;100.00
35551;BME280;21655;46.056;13.616;2023-04-01T04:57:43;99254.72;;;6.56;100.00
35551;BME280;21655;46.056;13.616;2023-04-01T05:00:09;99254.63;;;6.64;100.00
35551;BME280;21655;46.056;13.616;2023-04-01T05:02:35;99257.09;;;6.81;100.00
35551;BME280;21655;46.056;13.616;2023-04-01T05:05:01;99251.19;;;6.92;100.00
35551;BME280;21655;46.056;13.616;2023-04-01T05:07:26;99268.84;;;6.98;100.00
35551;BME280;21655;46.056;13.616;2023-04-01T05:09:52;99262.53;;;7.12;100.00
35551;BME280;21655;46.056;13.616;2023-04-01T05:12:17;99265.78;;;7.15;100.00
35551;BME280;21655;46.056;13.616;2023-04-01T05:14:42;99265.13;;;7.28;100.00
35551;BME280;21655;46.056;13.616;2023-04-01T05:17:09;99267.84;;;7.36;100.00
35551;BME280;21655;46.056;13.616;2023-04-01T05:19:35;99267.09;;;7.41;100.00
35551;BME280;21655;46.056;13.616;2023-04-01T05:22:01;99278.97;;;7.42;100.00
35551;BME280;21655;46.056;13.616;2023-04-01T05:24:26;99283.19;;;7.52;100.00
35551;BME280;21655;46.056;13.616;2023-04-01T05:26:52;99283.72;;;7.48;100.00
35551;BME280;21655;46.056;13.616;2023-04-01T05:29:17;99288.88;;;7.51;100.00
35551;BME280;21655;46.056;13.616;2023-04-01T05:31:43;99284.88;;;7.53;100.00
35551;BME280;21655;46.056;13.616;2023-04-01T05:34:08;99290.31;;;7.61;100.00
35551;BME280;21655;46.056;13.616;2023-04-01T05:36:34;99291.09;;;7.70;100.00
35551;BME280;21655;46.056;13.616;2023-04-01T05:39:00;99306.31;;;7.66;100.00
35551;BME280;21655;46.056;13.616;2023-04-01T05:41:26;99303.25;;;7.61;100.00
35551;BME280;21655;46.056;13.616;2023-04-01T05:43:51;99295.28;;;7.66;100.00
35551;BME280;21655;46.056;13.616;2023-04-01T05:46:17;99293.38;;;7.66;100.00
35551;BME280;21655;46.056;13.616;2023-04-01T05:48:42;99297.84;;;7.67;100.00
35551;BME280;21655;46.056;13.616;2023-04-01T05:51:13;99306.97;;;7.82;100.00
35551;BME280;21655;46.056;13.616;2023-04-01T05:53:39;99308.50;;;7.85;100.00
35551;BME280;21655;46.056;13.616;2023-04-01T05:56:04;99299.56;;;7.83;100.00
35551;BME280;21655;46.056;13.616;2023-04-01T05:58:30;99307.78;;;7.91;100.00
35551;BME280;21655;46.056;13.616;2023-04-01T06:01:07;99317.19;;;7.96;100.00
35551;BME280;21655;46.056;13.616;2023-04-01T06:03:33;99319.75;;;7.98;100.00
35551;BME280;21655;46.056;13.616;2023-04-01T06:05:58;99326.16;;;8.13;100.00
35551;BME280;21655;46.056;13.616;2023-04-01T06:08:24;99331.66;;;8.13;100.00
35551;BME280;21655;46.056;13.616;2023-04-01T06:13:39;99340.78;;;8.13;100.00
35551;BME280;21655;46.056;13.616;2023-04-01T06:16:23;99341.78;;;8.20;100.00
35551;BME280;21655;46.056;13.616;2023-04-01T06:32:57;99342.53;;;8.58;100.00
35551;BME280;21655;46.056;13.616;2023-04-01T06:39:04;99350.03;;;8.64;100.00
35551;BME280;21655;46.056;13.616;2023-04-01T06:53:05;99359.78;;;9.30;100.00
35551;BME280;21655;46.056;13.616;2023-04-01T06:55:46;99370.75;;;9.45;100.00
35551;BME280;21655;46.056;13.616;2023-04-01T06:58:31;99369.13;;;9.50;100.00
35551;BME280;21655;46.056;13.616;2023-04-01T07:01:03;99379.19;;;9.79;100.00
35551;BME280;21655;46.056;13.616;2023-04-01T07:03:31;99373.63;;;10.00;100.00
35551;BME280;21655;46.056;13.616;2023-04-01T07:06:05;99375.91;;;10.17;100.00
35551;BME280;21655;46.056;13.616;2023-04-01T07:08:34;99365.94;;;10.23;100.00
35551;BME280;21655;46.056;13.616;2023-04-01T07:11:06;99377.34;;;10.75;100.00
35551;BME280;21655;46.056;13.616;2023-04-01T07:16:38;99362.97;;;11.78;100.00
35551;BME280;21655;46.056;13.616;2023-04-01T07:21:40;99372.38;;;12.16;100.00
35551;BME280;21655;46.056;13.616;2023-04-01T07:24:29;99372.38;;;12.09;100.00
35551;BME280;21655;46.056;13.616;2023-04-01T07:26:57;99376.19;;;11.63;100.00
35551;BME280;21655;46.056;13.616;2023-04-01T07:29:25;99370.66;;;11.76;100.00
35551;BME280;21655;46.056;13.616;2023-04-01T07:32:28;99375.34;;;12.47;100.00
35551;BME280;21655;46.056;13.616;2023-04-01T07:48:54;99374.72;;;14.20;100.00
35551;BME280;21655;46.056;13.616;2023-04-01T07:57:11;99379.16;;;13.66;100.00
35551;BME280;21655;46.056;13.616;2023-04-01T08:05:26;99385.53;;;14.04;100.00
35551;BME280;21655;46.056;13.616;2023-04-01T08:22:05;99369.34;;;17.75;100.00
35551;BME280;21655;46.056;13.616;2023-04-01T08:24:41;99371.78;;;17.83;100.00
35551;BME280;21655;46.056;13.616;2023-04-01T08:30:15;99378.69;;;17.64;100.00
35551;BME280;21655;46.056;13.616;2023-04-01T08:32:46;99373.13;;;18.25;100.00
35551;BME280;21655;46.056;13.616;2023-04-01T08:37:41;99371.13;;;18.37;100.00
35551;BME280;21655;46.056;13.616;2023-04-01T08:40:36;99362.53;;;18.77;100.00
35551;BME280;21655;46.056;13.616;2023-04-01T08:43:11;99373.84;;;18.32;100.00
35551;BME280;21655;46.056;13.616;2023-04-01T08:48:56;99376.75;;;18.70;100.00
35551;BME280;21655;46.056;13.616;2023-04-01T08:56:56;99366.31;;;18.21;100.00
35551;BME280;21655;46.056;13.616;2023-04-01T09:32:34;99372.00;;;24.49;57.35
35551;BME280;21655;46.056;13.616;2023-04-01T09:38:02;99373.78;;;23.82;51.70
35551;BME280;21655;46.056;13.616;2023-04-01T09:45:44;99360.94;;;25.71;46.36
35551;BME280;21655;46.056;13.616;2023-04-01T09:52:07;99346.91;;;26.40;45.01
35551;BME280;21655;46.056;13.616;2023-04-01T09:59:55;99343.72;;;28.23;41.19
35551;BME280;21655;46.056;13.616;2023-04-01T10:08:19;99332.03;;;27.71;39.84
35551;BME280;21655;46.056;13.616;2023-04-01T10:30:09;99315.69;;;27.36;36.79
35551;BME280;21655;46.056;13.616;2023-04-01T10:38:45;99310.16;;;27.26;38.01
35551;BME280;21655;46.056;13.616;2023-04-01T10:54:47;99298.00;;;29.68;33.94
35551;BME280;21655;46.056;13.616;2023-04-01T11:00:08;99283.19;;;26.23;37.28
35551;BME280;21655;46.056;13.616;2023-04-01T11:08:14;99282.06;;;25.63;36.83
35551;BME280;21655;46.056;13.616;2023-04-01T11:11:47;99279.38;;;26.83;37.24
35551;BME280;21655;46.056;13.616;2023-04-01T11:33:44;99271.34;;;23.65;41.18
35551;BME280;21655;46.056;13.616;2023-04-01T11:42:59;99250.22;;;25.43;38.56
35551;BME280;21655;46.056;13.616;2023-04-01T11:45:12;99253.25;;;25.93;37.64
35551;BME280;21655;46.056;13.616;2023-04-01T11:55:30;99239.09;;;26.07;36.66
35551;BME280;21655;46.056;13.616;2023-04-01T12:04:23;99242.06;;;24.61;36.81
35551;BME280;21655;46.056;13.616;2023-04-01T12:10:02;99235.28;;;25.98;35.19
35551;BME280;21655;46.056;13.616;2023-04-01T12:12:52;99237.69;;;26.41;33.09
35551;BME280;21655;46.056;13.616;2023-04-01T12:15:48;99234.09;;;25.80;32.76
35551;BME280;21655;46.056;13.616;2023-04-01T12:32:23;99229.66;;;23.22;36.49
35551;BME280;21655;46.056;13.616;2023-04-01T12:35:05;99236.31;;;23.51;37.43
35551;BME280;21655;46.056;13.616;2023-04-01T13:00:33;99223.88;;;21.64;41.43
35551;BME280;21655;46.056;13.616;2023-04-01T13:08:47;99210.53;;;20.83;44.09
35551;BME280;21655;46.056;13.616;2023-04-01T13:19:35;99211.00;;;20.19;44.87
35551;BME280;21655;46.056;13.616;2023-04-01T13:24:51;99204.84;;;19.95;42.97
35551;BME280;21655;46.056;13.616;2023-04-01T13:27:31;99202.88;;;19.64;43.11
35551;BME280;21655;46.056;13.616;2023-04-01T13:36:31;99197.13;;;20.07;47.03
35551;BME280;21655;46.056;13.616;2023-04-01T13:39:09;99201.44;;;20.20;48.47
35551;BME280;21655;46.056;13.616;2023-04-01T13:42:12;99198.16;;;20.33;47.46
35551;BME280;21655;46.056;13.616;2023-04-01T13:50:26;99191.28;;;19.87;47.14
35551;BME280;21655;46.056;13.616;2023-04-01T13:55:57;99189.34;;;19.93;46.10
35551;BME280;21655;46.056;13.616;2023-04-01T14:01:06;99185.09;;;19.59;45.89
35551;BME280;21655;46.056;13.616;2023-04-01T14:03:48;99189.03;;;19.58;44.98
35551;BME280;21655;46.056;13.616;2023-04-01T14:22:40;99179.00;;;19.67;39.74
35551;BME280;21655;46.056;13.616;2023-04-01T14:25:17;99173.38;;;19.67;40.25
35551;BME280;21655;46.056;13.616;2023-04-01T14:30:42;99182.94;;;19.66;35.77
35551;BME280;21655;46.056;13.616;2023-04-01T14:49:37;99166.44;;;19.79;35.86
35551;BME280;21655;46.056;13.616;2023-04-01T14:52:33;99159.03;;;19.68;34.20
35551;BME280;21655;46.056;13.616;2023-04-01T14:55:01;99171.69;;;19.66;36.00
35551;BME280;21655;46.056;13.616;2023-04-01T14:57:36;99172.06;;;19.79;37.78
35551;BME280;21655;46.056;13.616;2023-04-01T15:05:23;99162.25;;;19.50;35.66
35551;BME280;21655;46.056;13.616;2023-04-01T15:21:44;99163.28;;;19.39;37.35
35551;BME280;21655;46.056;13.616;2023-04-01T15:24:22;99172.16;;;19.58;37.43
35551;BME280;21655;46.056;13.616;2023-04-01T15:27:13;99162.03;;;19.57;37.11
35551;BME280;21655;46.056;13.616;2023-04-01T15:32:39;99175.19;;;19.51;39.02
35551;BME280;21655;46.056;13.616;2023-04-01T15:37:54;99175.09;;;19.41;40.65
35551;BME280;21655;46.056;13.616;2023-04-01T15:43:15;99185.06;;;19.27;42.84
35551;BME280;21655;46.056;13.616;2023-04-01T15:46:09;99179.66;;;19.21;45.42
35551;BME280;21655;46.056;13.616;2023-04-01T15:49:09;99171.28;;;19.26;45.89
35551;BME280;21655;46.056;13.616;2023-04-01T15:57:44;99179.78;;;19.09;47.28
35551;BME280;21655;46.056;13.616;2023-04-01T16:16:28;99187.09;;;17.92;99.15
35551;BME280;21655;46.056;13.616;2023-04-01T16:19:22;99197.78;;;17.78;100.00
35551;BME280;21655;46.056;13.616;2023-04-01T16:24:43;99200.84;;;17.60;100.00
35551;BME280;21655;46.056;13.616;2023-04-01T16:27:37;99206.69;;;17.42;100.00
35551;BME280;21655;46.056;13.616;2023-04-01T16:33:35;99200.59;;;17.17;100.00
35551;BME280;21655;46.056;13.616;2023-04-01T16:36:35;99208.53;;;17.09;100.00
35551;BME280;21655;46.056;13.616;2023-04-01T16:42:40;99219.38;;;16.66;100.00
35551;BME280;21655;46.056;13.616;2023-04-01T16:45:21;99217.59;;;16.37;100.00
35551;BME280;21655;46.056;13.616;2023-04-01T16:47:56;99224.53;;;16.46;100.00
35551;BME280;21655;46.056;13.616;2023-04-01T16:58:09;99230.50;;;16.15;100.00
35551;BME280;21655;46.056;13.616;2023-04-01T17:05:39;99228.91;;;15.96;100.00
35551;BME280;21655;46.056;13.616;2023-04-01T17:11:19;99230.34;;;15.76;100.00
35551;BME280;21655;46.056;13.616;2023-04-01T17:17:10;99241.84;;;15.56;100.00
35551;BME280;21655;46.056;13.616;2023-04-01T17:49:41;99290.53;;;14.05;100.00
35551;BME280;21655;46.056;13.616;2023-04-01T18:11:58;99341.56;;;13.13;100.00
35551;BME280;21655;46.056;13.616;2023-04-01T18:14:48;99342.44;;;13.07;100.00
35551;BME280;21655;46.056;13.616;2023-04-01T18:17:48;99353.34;;;13.09;100.00
35551;BME280;21655;46.056;13.616;2023-04-01T18:28:56;99379.53;;;12.75;100.00
35551;BME280;21655;46.056;13.616;2023-04-01T18:31:26;99380.00;;;12.66;100.00
35551;BME280;21655;46.056;13.616;2023-04-01T18:34:17;99383.03;;;12.51;100.00
35551;BME280;21655;46.056;13.616;2023-04-01T18:36:44;99385.38;;;12.54;100.00
35551;BME280;21655;46.056;13.616;2023-04-01T18:39:17;99386.25;;;12.55;100.00
35551;BME280;21655;46.056;13.616;2023-04-01T18:44:45;99381.97;;;12.33;100.00
35551;BME280;21655;46.056;13.616;2023-04-01T18:50:15;99390.94;;;12.35;100.00
35551;BME280;21655;46.056;13.616;2023-04-01T18:52:45;99382.00;;;12.20;100.00
35551;BME280;21655;46.056;13.616;2023-04-01T18:55:42;99389.03;;;12.16;100.00
35551;BME280;21655;46.056;13.616;2023-04-01T18:58:34;99389.28;;;12.08;100.00
35551;BME280;21655;46.056;13.616;2023-04-01T19:01:26;99390.97;;;12.09;100.00
35551;BME280;21655;46.056;13.616;2023-04-01T19:06:49;99408.91;;;11.80;100.00
35551;BME280;21655;46.056;13.616;2023-04-01T19:09:45;99413.81;;;11.72;100.00
35551;BME280;21655;46.056;13.616;2023-04-01T19:12:26;99420.00;;;11.67;100.00
35551;BME280;21655;46.056;13.616;2023-04-01T19:15:13;99412.94;;;11.65;100.00
35551;BME280;21655;46.056;13.616;2023-04-01T19:18:02;99427.19;;;11.55;100.00
35551;BME280;21655;46.056;13.616;2023-04-01T19:20:41;99431.63;;;11.43;100.00
35551;BME280;21655;46.056;13.616;2023-04-01T19:26:05;99422.88;;;11.40;100.00
35551;BME280;21655;46.056;13.616;2023-04-01T19:28:40;99429.06;;;11.35;100.00
35551;BME280;21655;46.056;13.616;2023-04-01T19:37:26;99443.59;;;11.44;100.00
35551;BME280;21655;46.056;13.616;2023-04-01T19:40:09;99437.34;;;11.29;100.00
35551;BME280;21655;46.056;13.616;2023-04-01T19:45:37;99432.28;;;11.39;100.00
35551;BME280;21655;46.056;13.616;2023-04-01T19:48:52;99440.50;;;11.19;100.00
35551;BME280;21655;46.056;13.616;2023-04-01T19:54:01;99454.75;;;11.10;100.00
35551;BME280;21655;46.056;13.616;2023-04-01T19:56:50;99451.09;;;11.03;100.00
35551;BME280;21655;46.056;13.616;2023-04-01T20:04:53;99475.94;;;10.84;100.00
35551;BME280;21655;46.056;13.616;2023-04-01T20:07:27;99480.03;;;10.88;100.00
35551;BME280;21655;46.056;13.616;2023-04-01T20:10:20;99483.06;;;10.99;100.00
35551;BME280;21655;46.056;13.616;2023-04-01T20:15:23;99487.38;;;11.02;100.00
35551;BME280;21655;46.056;13.616;2023-04-01T20:17:53;99487.31;;;10.61;100.00
35551;BME280;21655;46.056;13.616;2023-04-01T20:20:26;99482.88;;;10.67;100.00
35551;BME280;21655;46.056;13.616;2023-04-01T20:25:51;99489.91;;;10.69;100.00
35551;BME280;21655;46.056;13.616;2023-04-01T20:28:25;99487.59;;;10.73;100.00
35551;BME280;21655;46.056;13.616;2023-04-01T20:31:17;99481.63;;;10.76;100.00
35551;BME280;21655;46.056;13.616;2023-04-01T20:34:03;99488.28;;;10.81;100.00
35551;BME280;21655;46.056;13.616;2023-04-01T20:37:00;99492.38;;;10.85;100.00
35551;BME280;21655;46.056;13.616;2023-04-01T20:39:34;99492.53;;;10.77;100.00
35551;BME280;21655;46.056;13.616;2023-04-01T20:45:32;99496.66;;;10.88;100.00
35551;BME280;21655;46.056;13.616;2023-04-01T20:50:56;99505.53;;;10.49;100.00
35551;BME280;21655;46.056;13.616;2023-04-01T21:01:41;99512.09;;;10.00;100.00
35551;BME280;21655;46.056;13.616;2023-04-01T21:09:41;99519.63;;;10.27;100.00
35551;BME280;21655;46.056;13.616;2023-04-01T21:25:50;99506.31;;;10.16;100.00
35551;BME280;21655;46.056;13.616;2023-04-01T21:31:09;99513.91;;;10.07;100.00
35551;BME280;21655;46.056;13.616;2023-04-01T21:33:41;99517.91;;;10.05;100.00
35551;BME280;21655;46.056;13.616;2023-04-01T21:38:54;99521.16;;;10.08;100.00
35551;BME280;21655;46.056;13.616;2023-04-01T21:42:07;99529.28;;;9.95;100.00
35551;BME280;21655;46.056;13.616;2023-04-01T22:09:03;99528.97;;;9.69;100.00
35551;BME280;21655;46.056;13.616;2023-04-01T22:11:48;99532.28;;;9.58;100.00
35551;BME280;21655;46.056;13.616;2023-04-01T22:17:28;99531.66;;;9.77;100.00
35551;BME280;21655;46.056;13.616;2023-04-01T22:28:21;99527.91;;;9.85;100.00
35551;BME280;21655;46.056;13.616;2023-04-01T22:30:59;99527.19;;;9.62;100.00
35551;BME280;21655;46.056;13.616;2023-04-01T22:52:36;99536.59;;;9.46;100.00
35551;BME280;21655;46.056;13.616;2023-04-01T22:55:24;99538.88;;;9.57;100.00
35551;BME280;21655;46.056;13.616;2023-04-01T22:58:00;99546.03;;;9.52;100.00
35551;BME280;21655;46.056;13.616;2023-04-01T23:00:45;99541.25;;;9.46;100.00
35551;BME280;21655;46.056;13.616;2023-04-01T23:03:17;99537.06;;;9.50;100.00
35551;BME280;21655;46.056;13.616;2023-04-01T23:06:03;99538.28;;;9.47;100.00
35551;BME280;21655;46.056;13.616;2023-04-01T23:16:54;99546.06;;;9.73;100.00
35551;BME280;21655;46.056;13.616;2023-04-01T23:24:41;99546.06;;;9.73;100.00
35551;BME280;21655;46.056;13.616;2023-04-01T23:27:17;99556.47;;;9.71;100.00
35551;BME280;21655;46.056;13.616;2023-04-01T23:29:45;99557.72;;;9.68;100.00
35551;BME280;21655;46.056;13.616;2023-04-01T23:32:18;99559.81;;;9.66;100.00
35551;BME280;21655;46.056;13.616;2023-04-01T23:34:50;99552.56;;;9.65;100.00
35551;BME280;21655;46.056;13.616;2023-04-01T23:37:17;99551.41;;;9.74;100.00
35551;BME280;21655;46.056;13.616;2023-04-01T23:39:56;99551.69;;;9.79;100.00
35551;BME280;21655;46.056;13.616;2023-04-01T23:44:52;99567.38;;;9.72;100.00
35551;BME280;21655;46.056;13.616;2023-04-01T23:47:26;99555.78;;;9.83;100.00
35551;BME280;21655;46.056;13.616;2023-04-01T23:50:22;99555.28;;;9.80;100.00
35551;BME280;21655;46.056;13.616;2023-04-01T23:52:53;99554.94;;;9.68;100.00
35551;BME280;21655;46.056;13.616;2023-04-01T23:55:27;99564.03;;;9.62;100.00
